CYXS

Prince George Airport

Prince George, British Columbia, Canada
METAR CYXS 140400Z AUTO 17012G18KT 9SM OVC110 04/M03 A2993 RMK SLP168
Observed Flight Rules
Nov-14 @ 04:00 UTC (50 minutes ago) Visual Flight Rules
Wind Visibility Clouds
170° at 12 knots
 Gusting to 18 knots
9 miles
  • Overcast at 11,000' AGL
Temperatures Readings
Current 4°C / 39°F
Dewpoint -3°C / 27°F
Humidity 61%
Altimeter 29.93" Hg
Pressure 1016.8 hPa
Elevation 691
METAR CYXS 140400Z AUTO 17012G18KT 9SM OVC110 04/M03 A2993 RMK SLP168
Observed Flight Rules
Nov-14 @ 04:00 UTC
(50 minutes ago)
VFR
Wind Visibility
170° at 12 knots
 Gusting to 18 knots
9 miles
Clouds
  • Overcast at 11,000' AGL
Temperature Dewpoint
4°C / 39°F -3°C / 27°F
Humidity Altimeter Pressure
61% 29.93" Hg 1016.8 hPa